sensor_id;sensor_type;location;lat;lon;timestamp;temperature;humidity
54518;DHT22;40423;53.176;6.002;2023-04-25T00:02:04;7.20;99.90
54518;DHT22;40423;53.176;6.002;2023-04-25T00:04:30;7.20;99.90
54518;DHT22;40423;53.176;6.002;2023-04-25T00:06:59;7.10;99.90
54518;DHT22;40423;53.176;6.002;2023-04-25T00:09:27;7.10;99.90
54518;DHT22;40423;53.176;6.002;2023-04-25T00:11:53;7.10;99.90
54518;DHT22;40423;53.176;6.002;2023-04-25T00:14:19;7.00;99.90
54518;DHT22;40423;53.176;6.002;2023-04-25T00:16:44;7.00;99.90
54518;DHT22;40423;53.176;6.002;2023-04-25T00:19:10;6.90;99.90
54518;DHT22;40423;53.176;6.002;2023-04-25T00:21:36;7.00;99.90
54518;DHT22;40423;53.176;6.002;2023-04-25T00:24:06;7.00;99.90
54518;DHT22;40423;53.176;6.002;2023-04-25T00:26:34;6.90;99.90
54518;DHT22;40423;53.176;6.002;2023-04-25T00:29:00;6.90;99.90
54518;DHT22;40423;53.176;6.002;2023-04-25T00:31:26;6.90;99.90
54518;DHT22;40423;53.176;6.002;2023-04-25T00:33:52;6.90;99.90
54518;DHT22;40423;53.176;6.002;2023-04-25T00:36:18;6.90;99.90
54518;DHT22;40423;53.176;6.002;2023-04-25T00:38:44;6.90;99.90
54518;DHT22;40423;53.176;6.002;2023-04-25T00:41:10;6.90;99.90
54518;DHT22;40423;53.176;6.002;2023-04-25T00:43:37;6.90;99.90
54518;DHT22;40423;53.176;6.002;2023-04-25T00:46:03;6.90;99.90
54518;DHT22;40423;53.176;6.002;2023-04-25T00:48:29;6.90;99.90
54518;DHT22;40423;53.176;6.002;2023-04-25T00:50:57;6.80;99.90
54518;DHT22;40423;53.176;6.002;2023-04-25T00:53:24;6.90;99.90
54518;DHT22;40423;53.176;6.002;2023-04-25T00:55:51;6.90;99.90
54518;DHT22;40423;53.176;6.002;2023-04-25T00:58:17;6.90;99.90
54518;DHT22;40423;53.176;6.002;2023-04-25T01:00:47;6.90;99.90
54518;DHT22;40423;53.176;6.002;2023-04-25T01:03:14;6.90;99.90
54518;DHT22;40423;53.176;6.002;2023-04-25T01:05:42;7.00;99.90
54518;DHT22;40423;53.176;6.002;2023-04-25T01:08:07;6.90;99.90
54518;DHT22;40423;53.176;6.002;2023-04-25T01:10:33;6.90;99.90
54518;DHT22;40423;53.176;6.002;2023-04-25T01:12:59;6.90;99.90
54518;DHT22;40423;53.176;6.002;2023-04-25T01:15:25;6.90;99.90
54518;DHT22;40423;53.176;6.002;2023-04-25T01:17:50;6.90;99.90
54518;DHT22;40423;53.176;6.002;2023-04-25T01:20:16;6.90;99.90
54518;DHT22;40423;53.176;6.002;2023-04-25T01:22:43;6.90;99.90
54518;DHT22;40423;53.176;6.002;2023-04-25T01:25:08;6.90;99.90
54518;DHT22;40423;53.176;6.002;2023-04-25T01:27:36;7.00;99.90
54518;DHT22;40423;53.176;6.002;2023-04-25T01:30:03;6.90;99.90
54518;DHT22;40423;53.176;6.002;2023-04-25T01:32:30;7.00;99.90
54518;DHT22;40423;53.176;6.002;2023-04-25T01:35:06;7.00;99.90
54518;DHT22;40423;53.176;6.002;2023-04-25T01:37:42;6.90;99.90
54518;DHT22;40423;53.176;6.002;2023-04-25T01:40:10;6.90;99.90
54518;DHT22;40423;53.176;6.002;2023-04-25T01:42:37;6.70;99.90
54518;DHT22;40423;53.176;6.002;2023-04-25T01:45:04;6.70;99.90
54518;DHT22;40423;53.176;6.002;2023-04-25T01:47:29;6.60;99.90
54518;DHT22;40423;53.176;6.002;2023-04-25T01:49:55;6.70;99.90
54518;DHT22;40423;53.176;6.002;2023-04-25T01:52:21;6.60;99.90
54518;DHT22;40423;53.176;6.002;2023-04-25T01:54:47;6.60;99.90
54518;DHT22;40423;53.176;6.002;2023-04-25T01:57:14;6.60;99.90
54518;DHT22;40423;53.176;6.002;2023-04-25T01:59:41;6.60;99.90
54518;DHT22;40423;53.176;6.002;2023-04-25T02:02:07;6.60;99.90
54518;DHT22;40423;53.176;6.002;2023-04-25T02:04:33;6.60;99.90
54518;DHT22;40423;53.176;6.002;2023-04-25T02:06:58;6.70;99.90
54518;DHT22;40423;53.176;6.002;2023-04-25T02:09:24;6.70;99.90
54518;DHT22;40423;53.176;6.002;2023-04-25T02:11:50;6.70;99.90
54518;DHT22;40423;53.176;6.002;2023-04-25T02:14:16;6.70;99.90
54518;DHT22;40423;53.176;6.002;2023-04-25T02:16:42;6.60;99.90
54518;DHT22;40423;53.176;6.002;2023-04-25T02:19:09;6.50;99.90
54518;DHT22;40423;53.176;6.002;2023-04-25T02:21:36;6.60;99.90
54518;DHT22;40423;53.176;6.002;2023-04-25T02:24:02;6.50;99.90
54518;DHT22;40423;53.176;6.002;2023-04-25T02:26:28;6.50;99.90
54518;DHT22;40423;53.176;6.002;2023-04-25T02:28:54;6.50;99.90
54518;DHT22;40423;53.176;6.002;2023-04-25T02:31:20;6.50;99.90
54518;DHT22;40423;53.176;6.002;2023-04-25T02:33:46;6.40;99.90
54518;DHT22;40423;53.176;6.002;2023-04-25T02:36:12;6.40;99.90
54518;DHT22;40423;53.176;6.002;2023-04-25T02:38:37;6.40;99.90
54518;DHT22;40423;53.176;6.002;2023-04-25T02:41:03;6.30;99.90
54518;DHT22;40423;53.176;6.002;2023-04-25T02:43:29;6.30;99.90
54518;DHT22;40423;53.176;6.002;2023-04-25T02:45:55;6.20;99.90
54518;DHT22;40423;53.176;6.002;2023-04-25T02:48:20;6.20;99.90
54518;DHT22;40423;53.176;6.002;2023-04-25T02:50:46;6.20;99.90
54518;DHT22;40423;53.176;6.002;2023-04-25T02:53:12;6.10;99.90
54518;DHT22;40423;53.176;6.002;2023-04-25T02:55:38;6.20;99.90
54518;DHT22;40423;53.176;6.002;2023-04-25T02:58:06;6.20;99.90
54518;DHT22;40423;53.176;6.002;2023-04-25T03:00:32;6.20;99.90
54518;DHT22;40423;53.176;6.002;2023-04-25T03:02:58;6.00;99.90
54518;DHT22;40423;53.176;6.002;2023-04-25T03:05:24;6.00;99.90
54518;DHT22;40423;53.176;6.002;2023-04-25T03:07:49;6.00;99.90
54518;DHT22;40423;53.176;6.002;2023-04-25T03:10:15;5.90;99.90
54518;DHT22;40423;53.176;6.002;2023-04-25T03:12:41;5.90;99.90
54518;DHT22;40423;53.176;6.002;2023-04-25T03:15:07;5.90;99.90
54518;DHT22;40423;53.176;6.002;2023-04-25T03:17:33;5.90;99.90
54518;DHT22;40423;53.176;6.002;2023-04-25T03:19:59;6.00;99.90
54518;DHT22;40423;53.176;6.002;2023-04-25T03:22:25;5.90;99.90
54518;DHT22;40423;53.176;6.002;2023-04-25T03:24:50;5.90;99.90
54518;DHT22;40423;53.176;6.002;2023-04-25T03:27:17;6.00;99.90
54518;DHT22;40423;53.176;6.002;2023-04-25T03:29:43;6.00;99.90
54518;DHT22;40423;53.176;6.002;2023-04-25T03:32:08;6.00;99.90
54518;DHT22;40423;53.176;6.002;2023-04-25T03:34:34;6.00;99.90
54518;DHT22;40423;53.176;6.002;2023-04-25T03:37:00;6.00;99.90
54518;DHT22;40423;53.176;6.002;2023-04-25T03:39:26;6.00;99.90
54518;DHT22;40423;53.176;6.002;2023-04-25T03:41:52;6.10;99.90
54518;DHT22;40423;53.176;6.002;2023-04-25T03:44:18;6.10;99.90
54518;DHT22;40423;53.176;6.002;2023-04-25T03:46:43;6.10;99.90
54518;DHT22;40423;53.176;6.002;2023-04-25T03:49:09;6.10;99.90
54518;DHT22;40423;53.176;6.002;2023-04-25T03:51:35;6.20;99.90
54518;DHT22;40423;53.176;6.002;2023-04-25T03:54:00;6.20;99.90
54518;DHT22;40423;53.176;6.002;2023-04-25T03:56:26;6.20;99.90
54518;DHT22;40423;53.176;6.002;2023-04-25T03:58:52;6.20;99.90
54518;DHT22;40423;53.176;6.002;2023-04-25T04:01:17;6.20;99.90
54518;DHT22;40423;53.176;6.002;2023-04-25T04:03:43;6.20;99.90
54518;DHT22;40423;53.176;6.002;2023-04-25T04:06:09;6.20;99.90
54518;DHT22;40423;53.176;6.002;2023-04-25T04:08:36;6.20;99.90
54518;DHT22;40423;53.176;6.002;2023-04-25T04:11:02;6.10;99.90
54518;DHT22;40423;53.176;6.002;2023-04-25T04:13:28;6.10;99.90
54518;DHT22;40423;53.176;6.002;2023-04-25T04:15:55;6.10;99.90
54518;DHT22;40423;53.176;6.002;2023-04-25T04:18:21;6.10;99.90
54518;DHT22;40423;53.176;6.002;2023-04-25T04:20:47;6.00;99.90
54518;DHT22;40423;53.176;6.002;2023-04-25T04:23:13;6.00;99.90
54518;DHT22;40423;53.176;6.002;2023-04-25T04:25:39;6.00;99.90
54518;DHT22;40423;53.176;6.002;2023-04-25T04:28:05;6.00;99.90
54518;DHT22;40423;53.176;6.002;2023-04-25T04:30:31;6.00;99.90
54518;DHT22;40423;53.176;6.002;2023-04-25T04:32:58;6.00;99.90
54518;DHT22;40423;53.176;6.002;2023-04-25T04:35:24;6.00;99.90
54518;DHT22;40423;53.176;6.002;2023-04-25T04:37:50;6.00;99.90
54518;DHT22;40423;53.176;6.002;2023-04-25T04:40:16;6.00;99.90
54518;DHT22;40423;53.176;6.002;2023-04-25T04:42:43;6.00;99.90
54518;DHT22;40423;53.176;6.002;2023-04-25T04:45:11;6.00;99.90
54518;DHT22;40423;53.176;6.002;2023-04-25T04:47:37;6.00;99.90
54518;DHT22;40423;53.176;6.002;2023-04-25T04:50:09;6.00;99.90
54518;DHT22;40423;53.176;6.002;2023-04-25T04:52:36;6.00;99.90
54518;DHT22;40423;53.176;6.002;2023-04-25T04:55:02;6.00;99.90
54518;DHT22;40423;53.176;6.002;2023-04-25T04:57:29;6.00;99.90
54518;DHT22;40423;53.176;6.002;2023-04-25T04:59:55;6.00;99.90
54518;DHT22;40423;53.176;6.002;2023-04-25T05:02:21;6.10;99.90
54518;DHT22;40423;53.176;6.002;2023-04-25T05:04:46;6.10;99.90
54518;DHT22;40423;53.176;6.002;2023-04-25T05:07:12;6.10;99.90
54518;DHT22;40423;53.176;6.002;2023-04-25T05:09:38;6.20;99.90
54518;DHT22;40423;53.176;6.002;2023-04-25T05:12:04;6.20;99.90
54518;DHT22;40423;53.176;6.002;2023-04-25T05:14:30;6.20;99.90
54518;DHT22;40423;53.176;6.002;2023-04-25T05:16:56;6.30;99.90
54518;DHT22;40423;53.176;6.002;2023-04-25T05:19:22;6.30;99.90
54518;DHT22;40423;53.176;6.002;2023-04-25T05:21:47;6.30;99.90
54518;DHT22;40423;53.176;6.002;2023-04-25T05:24:13;6.40;99.90
54518;DHT22;40423;53.176;6.002;2023-04-25T05:26:39;6.40;99.90
54518;DHT22;40423;53.176;6.002;2023-04-25T05:29:05;6.30;99.90
54518;DHT22;40423;53.176;6.002;2023-04-25T05:31:31;6.40;99.90
54518;DHT22;40423;53.176;6.002;2023-04-25T05:33:57;6.40;99.90
54518;DHT22;40423;53.176;6.002;2023-04-25T05:36:23;6.40;99.90
54518;DHT22;40423;53.176;6.002;2023-04-25T05:38:49;6.40;99.90
54518;DHT22;40423;53.176;6.002;2023-04-25T05:41:14;6.50;99.90
54518;DHT22;40423;53.176;6.002;2023-04-25T05:43:40;6.50;99.90
54518;DHT22;40423;53.176;6.002;2023-04-25T05:46:11;6.60;99.90
54518;DHT22;40423;53.176;6.002;2023-04-25T05:48:38;6.60;99.90
54518;DHT22;40423;53.176;6.002;2023-04-25T05:51:03;6.60;99.90
54518;DHT22;40423;53.176;6.002;2023-04-25T05:53:29;6.60;99.90
54518;DHT22;40423;53.176;6.002;2023-04-25T05:55:55;6.60;99.90
54518;DHT22;40423;53.176;6.002;2023-04-25T05:58:21;6.40;99.90
54518;DHT22;40423;53.176;6.002;2023-04-25T06:00:46;6.30;99.90
54518;DHT22;40423;53.176;6.002;2023-04-25T06:03:12;6.20;99.90
54518;DHT22;40423;53.176;6.002;2023-04-25T06:05:43;6.00;99.90
54518;DHT22;40423;53.176;6.002;2023-04-25T06:08:10;5.80;99.90
54518;DHT22;40423;53.176;6.002;2023-04-25T06:10:36;5.80;99.90
54518;DHT22;40423;53.176;6.002;2023-04-25T06:13:02;5.80;99.90
54518;DHT22;40423;53.176;6.002;2023-04-25T06:15:28;5.90;99.90
54518;DHT22;40423;53.176;6.002;2023-04-25T06:17:55;5.90;99.90
54518;DHT22;40423;53.176;6.002;2023-04-25T06:20:21;5.90;99.90
54518;DHT22;40423;53.176;6.002;2023-04-25T06:22:50;5.90;99.90
54518;DHT22;40423;53.176;6.002;2023-04-25T06:25:16;6.00;99.90
54518;DHT22;40423;53.176;6.002;2023-04-25T06:27:41;6.10;99.90
54518;DHT22;40423;53.176;6.002;2023-04-25T06:30:07;6.10;99.90
54518;DHT22;40423;53.176;6.002;2023-04-25T06:32:33;6.20;99.90
54518;DHT22;40423;53.176;6.002;2023-04-25T06:35:00;6.20;99.90
54518;DHT22;40423;53.176;6.002;2023-04-25T06:37:26;6.00;99.90
54518;DHT22;40423;53.176;6.002;2023-04-25T06:39:52;6.00;99.90
54518;DHT22;40423;53.176;6.002;2023-04-25T06:42:17;6.00;99.90
54518;DHT22;40423;53.176;6.002;2023-04-25T06:44:46;6.10;99.90
54518;DHT22;40423;53.176;6.002;2023-04-25T06:47:11;6.10;99.90
54518;DHT22;40423;53.176;6.002;2023-04-25T06:49:37;6.10;99.90
54518;DHT22;40423;53.176;6.002;2023-04-25T06:52:03;6.10;99.90
54518;DHT22;40423;53.176;6.002;2023-04-25T06:54:29;6.10;99.90
54518;DHT22;40423;53.176;6.002;2023-04-25T06:56:55;6.10;99.90
54518;DHT22;40423;53.176;6.002;2023-04-25T06:59:22;6.10;99.90
54518;DHT22;40423;53.176;6.002;2023-04-25T07:01:48;6.20;99.90
54518;DHT22;40423;53.176;6.002;2023-04-25T07:04:13;6.10;99.90
54518;DHT22;40423;53.176;6.002;2023-04-25T07:06:39;6.10;99.90
54518;DHT22;40423;53.176;6.002;2023-04-25T07:09:11;6.10;99.90
54518;DHT22;40423;53.176;6.002;2023-04-25T07:11:37;6.20;99.90
54518;DHT22;40423;53.176;6.002;2023-04-25T07:14:03;6.20;99.90
54518;DHT22;40423;53.176;6.002;2023-04-25T07:16:29;6.30;99.90
54518;DHT22;40423;53.176;6.002;2023-04-25T07:18:55;6.30;99.90
54518;DHT22;40423;53.176;6.002;2023-04-25T07:21:21;6.20;99.90
54518;DHT22;40423;53.176;6.002;2023-04-25T07:23:46;6.30;99.90
54518;DHT22;40423;53.176;6.002;2023-04-25T07:26:12;6.40;99.90
54518;DHT22;40423;53.176;6.002;2023-04-25T07:28:38;6.30;99.90
54518;DHT22;40423;53.176;6.002;2023-04-25T07:31:04;6.70;99.90
54518;DHT22;40423;53.176;6.002;2023-04-25T07:33:31;6.90;99.90
54518;DHT22;40423;53.176;6.002;2023-04-25T07:35:56;7.10;99.90
54518;DHT22;40423;53.176;6.002;2023-04-25T07:38:22;7.30;99.90
54518;DHT22;40423;53.176;6.002;2023-04-25T07:40:49;7.50;99.90
54518;DHT22;40423;53.176;6.002;2023-04-25T07:43:15;7.50;99.90
54518;DHT22;40423;53.176;6.002;2023-04-25T07:45:45;7.60;99.90
54518;DHT22;40423;53.176;6.002;2023-04-25T07:48:16;7.70;99.90
54518;DHT22;40423;53.176;6.002;2023-04-25T07:50:43;7.80;99.90
54518;DHT22;40423;53.176;6.002;2023-04-25T07:53:09;7.80;99.90
54518;DHT22;40423;53.176;6.002;2023-04-25T07:55:34;7.90;99.90
54518;DHT22;40423;53.176;6.002;2023-04-25T07:58:02;8.00;99.90
54518;DHT22;40423;53.176;6.002;2023-04-25T08:00:28;8.10;99.90
54518;DHT22;40423;53.176;6.002;2023-04-25T08:02:54;8.20;99.90
54518;DHT22;40423;53.176;6.002;2023-04-25T08:05:20;8.10;99.90
54518;DHT22;40423;53.176;6.002;2023-04-25T08:07:45;7.90;99.90
54518;DHT22;40423;53.176;6.002;2023-04-25T08:10:11;7.80;99.90
54518;DHT22;40423;53.176;6.002;2023-04-25T08:12:37;8.00;99.90
54518;DHT22;40423;53.176;6.002;2023-04-25T08:15:04;8.00;99.90
54518;DHT22;40423;53.176;6.002;2023-04-25T08:17:30;8.10;99.90
54518;DHT22;40423;53.176;6.002;2023-04-25T08:19:56;8.20;99.90
54518;DHT22;40423;53.176;6.002;2023-04-25T08:22:22;8.30;99.90
54518;DHT22;40423;53.176;6.002;2023-04-25T08:24:48;8.40;99.90
54518;DHT22;40423;53.176;6.002;2023-04-25T08:27:14;8.50;99.90
54518;DHT22;40423;53.176;6.002;2023-04-25T08:29:41;8.60;99.90
54518;DHT22;40423;53.176;6.002;2023-04-25T08:32:06;8.80;99.90
54518;DHT22;40423;53.176;6.002;2023-04-25T08:34:32;8.70;99.90
54518;DHT22;40423;53.176;6.002;2023-04-25T08:36:58;8.60;99.90
54518;DHT22;40423;53.176;6.002;2023-04-25T08:39:24;8.50;99.90
54518;DHT22;40423;53.176;6.002;2023-04-25T08:41:50;8.50;99.90
54518;DHT22;40423;53.176;6.002;2023-04-25T08:44:16;8.70;99.90
54518;DHT22;40423;53.176;6.002;2023-04-25T08:46:42;8.80;99.90
54518;DHT22;40423;53.176;6.002;2023-04-25T08:49:11;8.80;99.90
54518;DHT22;40423;53.176;6.002;2023-04-25T08:51:44;8.70;99.90
54518;DHT22;40423;53.176;6.002;2023-04-25T08:54:16;8.20;99.90
54518;DHT22;40423;53.176;6.002;2023-04-25T08:56:45;7.70;99.90
54518;DHT22;40423;53.176;6.002;2023-04-25T08:59:13;7.60;99.90
54518;DHT22;40423;53.176;6.002;2023-04-25T09:01:39;7.80;99.90
54518;DHT22;40423;53.176;6.002;2023-04-25T09:04:05;8.10;99.90
54518;DHT22;40423;53.176;6.002;2023-04-25T09:06:31;8.30;99.90
54518;DHT22;40423;53.176;6.002;2023-04-25T09:09:05;8.60;99.90
54518;DHT22;40423;53.176;6.002;2023-04-25T09:11:32;8.60;99.90
54518;DHT22;40423;53.176;6.002;2023-04-25T09:14:18;8.80;99.90
54518;DHT22;40423;53.176;6.002;2023-04-25T09:17:02;9.00;99.90
54518;DHT22;40423;53.176;6.002;2023-04-25T09:21:54;9.20;99.90
54518;DHT22;40423;53.176;6.002;2023-04-25T09:27:12;9.20;99.50
54518;DHT22;40423;53.176;6.002;2023-04-25T09:29:40;9.20;99.90
54518;DHT22;40423;53.176;6.002;2023-04-25T09:32:23;9.40;99.00
54518;DHT22;40423;53.176;6.002;2023-04-25T09:34:57;9.50;98.30
54518;DHT22;40423;53.176;6.002;2023-04-25T09:37:27;9.30;98.00
54518;DHT22;40423;53.176;6.002;2023-04-25T09:39:57;9.50;99.20
54518;DHT22;40423;53.176;6.002;2023-04-25T09:42:31;9.70;99.70
54518;DHT22;40423;53.176;6.002;2023-04-25T09:44:58;9.70;98.90
54518;DHT22;40423;53.176;6.002;2023-04-25T09:47:25;9.70;99.40
54518;DHT22;40423;53.176;6.002;2023-04-25T09:49:54;9.60;99.00
54518;DHT22;40423;53.176;6.002;2023-04-25T09:52:24;9.50;99.90
54518;DHT22;40423;53.176;6.002;2023-04-25T09:54:51;9.10;99.90
54518;DHT22;40423;53.176;6.002;2023-04-25T09:57:24;8.80;99.90
54518;DHT22;40423;53.176;6.002;2023-04-25T09:59:54;8.40;99.90
54518;DHT22;40423;53.176;6.002;2023-04-25T10:02:25;8.50;99.90
54518;DHT22;40423;53.176;6.002;2023-04-25T10:04:53;8.30;99.90
54518;DHT22;40423;53.176;6.002;2023-04-25T10:07:26;8.10;99.90
54518;DHT22;40423;53.176;6.002;2023-04-25T10:10:03;8.10;99.90
54518;DHT22;40423;53.176;6.002;2023-04-25T10:12:30;8.10;99.90
54518;DHT22;40423;53.176;6.002;2023-04-25T10:15:01;7.90;99.90
54518;DHT22;40423;53.176;6.002;2023-04-25T10:17:28;7.60;99.90
54518;DHT22;40423;53.176;6.002;2023-04-25T10:19:54;7.20;99.90
54518;DHT22;40423;53.176;6.002;2023-04-25T10:22:34;7.00;99.90
54518;DHT22;40423;53.176;6.002;2023-04-25T10:25:01;7.00;99.90
54518;DHT22;40423;53.176;6.002;2023-04-25T10:27:29;7.00;99.90
54518;DHT22;40423;53.176;6.002;2023-04-25T10:30:14;7.00;99.90
54518;DHT22;40423;53.176;6.002;2023-04-25T10:32:43;7.00;99.90
54518;DHT22;40423;53.176;6.002;2023-04-25T10:35:18;7.10;99.90
54518;DHT22;40423;53.176;6.002;2023-04-25T10:40:26;7.30;99.90
54518;DHT22;40423;53.176;6.002;2023-04-25T10:42:52;7.50;99.90
54518;DHT22;40423;53.176;6.002;2023-04-25T10:45:20;7.80;99.90
54518;DHT22;40423;53.176;6.002;2023-04-25T10:47:45;8.10;99.90
54518;DHT22;40423;53.176;6.002;2023-04-25T10:50:13;8.40;99.90
54518;DHT22;40423;53.176;6.002;2023-04-25T10:52:39;8.70;99.90
54518;DHT22;40423;53.176;6.002;2023-04-25T10:55:06;8.60;99.90
54518;DHT22;40423;53.176;6.002;2023-04-25T10:57:42;8.80;99.90
54518;DHT22;40423;53.176;6.002;2023-04-25T11:00:14;9.20;99.90
54518;DHT22;40423;53.176;6.002;2023-04-25T11:05:34;8.90;99.90
54518;DHT22;40423;53.176;6.002;2023-04-25T11:08:01;8.60;99.90
54518;DHT22;40423;53.176;6.002;2023-04-25T11:10:30;8.80;99.90
54518;DHT22;40423;53.176;6.002;2023-04-25T11:12:56;9.00;99.90
54518;DHT22;40423;53.176;6.002;2023-04-25T11:15:22;9.20;99.90
54518;DHT22;40423;53.176;6.002;2023-04-25T11:17:50;9.50;99.90
54518;DHT22;40423;53.176;6.002;2023-04-25T11:20:16;9.60;99.90
54518;DHT22;40423;53.176;6.002;2023-04-25T11:22:44;9.80;99.90
54518;DHT22;40423;53.176;6.002;2023-04-25T11:25:12;9.50;99.90
54518;DHT22;40423;53.176;6.002;2023-04-25T11:27:51;8.90;99.90
54518;DHT22;40423;53.176;6.002;2023-04-25T11:30:18;8.30;99.90
54518;DHT22;40423;53.176;6.002;2023-04-25T11:32:44;8.00;99.90
54518;DHT22;40423;53.176;6.002;2023-04-25T11:35:11;7.90;99.90
54518;DHT22;40423;53.176;6.002;2023-04-25T11:37:42;7.80;99.90
54518;DHT22;40423;53.176;6.002;2023-04-25T11:40:09;7.70;99.90
54518;DHT22;40423;53.176;6.002;2023-04-25T11:42:47;7.50;99.90
54518;DHT22;40423;53.176;6.002;2023-04-25T11:45:13;7.70;99.90
54518;DHT22;40423;53.176;6.002;2023-04-25T11:47:40;8.20;99.90
54518;DHT22;40423;53.176;6.002;2023-04-25T11:50:07;8.30;99.90
54518;DHT22;40423;53.176;6.002;2023-04-25T11:52:37;8.40;99.90
54518;DHT22;40423;53.176;6.002;2023-04-25T11:55:07;7.90;99.90
54518;DHT22;40423;53.176;6.002;2023-04-25T11:57:33;7.70;99.90
54518;DHT22;40423;53.176;6.002;2023-04-25T12:00:13;7.60;99.90
54518;DHT22;40423;53.176;6.002;2023-04-25T12:02:44;7.60;99.90
54518;DHT22;40423;53.176;6.002;2023-04-25T12:05:12;7.50;99.90
54518;DHT22;40423;53.176;6.002;2023-04-25T12:07:38;7.60;99.90
54518;DHT22;40423;53.176;6.002;2023-04-25T12:10:05;7.70;99.90
54518;DHT22;40423;53.176;6.002;2023-04-25T12:12:35;8.00;99.90
54518;DHT22;40423;53.176;6.002;2023-04-25T12:15:18;8.40;99.90
54518;DHT22;40423;53.176;6.002;2023-04-25T12:17:46;8.40;99.90
54518;DHT22;40423;53.176;6.002;2023-04-25T12:20:14;8.50;99.90
54518;DHT22;40423;53.176;6.002;2023-04-25T12:22:42;8.70;99.90
54518;DHT22;40423;53.176;6.002;2023-04-25T12:25:12;9.10;99.90
54518;DHT22;40423;53.176;6.002;2023-04-25T12:27:39;9.50;99.90
54518;DHT22;40423;53.176;6.002;2023-04-25T12:30:09;9.70;99.90
54518;DHT22;40423;53.176;6.002;2023-04-25T12:32:36;9.90;99.90
54518;DHT22;40423;53.176;6.002;2023-04-25T12:35:04;9.60;99.90
54518;DHT22;40423;53.176;6.002;2023-04-25T12:37:30;9.40;99.90
54518;DHT22;40423;53.176;6.002;2023-04-25T12:39:56;9.50;99.70
54518;DHT22;40423;53.176;6.002;2023-04-25T12:42:22;9.80;99.90
54518;DHT22;40423;53.176;6.002;2023-04-25T12:44:47;9.90;99.10
54518;DHT22;40423;53.176;6.002;2023-04-25T12:47:13;10.10;99.90
54518;DHT22;40423;53.176;6.002;2023-04-25T12:49:39;9.90;99.90
54518;DHT22;40423;53.176;6.002;2023-04-25T12:52:05;9.40;99.90
54518;DHT22;40423;53.176;6.002;2023-04-25T12:54:31;9.10;99.90
54518;DHT22;40423;53.176;6.002;2023-04-25T12:56:56;8.90;99.90
54518;DHT22;40423;53.176;6.002;2023-04-25T12:59:22;9.00;99.90
54518;DHT22;40423;53.176;6.002;2023-04-25T13:01:48;9.20;99.90
54518;DHT22;40423;53.176;6.002;2023-04-25T13:04:14;9.30;99.90
54518;DHT22;40423;53.176;6.002;2023-04-25T13:06:41;9.70;99.90
54518;DHT22;40423;53.176;6.002;2023-04-25T13:09:07;9.70;99.10
54518;DHT22;40423;53.176;6.002;2023-04-25T13:11:32;10.00;98.80
54518;DHT22;40423;53.176;6.002;2023-04-25T13:13:58;10.30;98.90
54518;DHT22;40423;53.176;6.002;2023-04-25T13:16:24;10.50;98.60
54518;DHT22;40423;53.176;6.002;2023-04-25T13:18:49;10.80;98.80
54518;DHT22;40423;53.176;6.002;2023-04-25T13:21:15;10.90;97.90
54518;DHT22;40423;53.176;6.002;2023-04-25T13:23:41;11.20;99.70
54518;DHT22;40423;53.176;6.002;2023-04-25T13:26:08;11.00;99.80
54518;DHT22;40423;53.176;6.002;2023-04-25T13:28:34;10.90;99.60
54518;DHT22;40423;53.176;6.002;2023-04-25T13:31:00;10.40;99.90
54518;DHT22;40423;53.176;6.002;2023-04-25T13:33:25;9.80;99.90
54518;DHT22;40423;53.176;6.002;2023-04-25T13:35:51;9.70;99.90
54518;DHT22;40423;53.176;6.002;2023-04-25T13:38:23;9.90;99.90
54518;DHT22;40423;53.176;6.002;2023-04-25T13:40:50;10.30;99.70
54518;DHT22;40423;53.176;6.002;2023-04-25T13:43:19;10.40;99.60
54518;DHT22;40423;53.176;6.002;2023-04-25T13:45:44;10.70;99.90
54518;DHT22;40423;53.176;6.002;2023-04-25T13:48:10;10.60;99.60
54518;DHT22;40423;53.176;6.002;2023-04-25T13:50:36;10.40;98.60
54518;DHT22;40423;53.176;6.002;2023-04-25T13:53:02;10.40;98.60
54518;DHT22;40423;53.176;6.002;2023-04-25T13:55:27;9.90;99.80
54518;DHT22;40423;53.176;6.002;2023-04-25T13:57:53;9.80;99.90
54518;DHT22;40423;53.176;6.002;2023-04-25T14:00:19;9.90;99.90
54518;DHT22;40423;53.176;6.002;2023-04-25T14:02:45;9.90;99.60
54518;DHT22;40423;53.176;6.002;2023-04-25T14:05:11;10.20;99.10
54518;DHT22;40423;53.176;6.002;2023-04-25T14:07:37;10.30;97.80
54518;DHT22;40423;53.176;6.002;2023-04-25T14:10:03;10.60;98.60
54518;DHT22;40423;53.176;6.002;2023-04-25T14:12:30;10.60;96.70
54518;DHT22;40423;53.176;6.002;2023-04-25T14:14:55;10.50;96.50
54518;DHT22;40423;53.176;6.002;2023-04-25T14:17:21;10.20;96.70
54518;DHT22;40423;53.176;6.002;2023-04-25T14:19:47;9.60;98.00
54518;DHT22;40423;53.176;6.002;2023-04-25T14:22:14;9.30;97.80
54518;DHT22;40423;53.176;6.002;2023-04-25T14:24:43;9.30;98.20
54518;DHT22;40423;53.176;6.002;2023-04-25T14:27:09;9.40;98.40
54518;DHT22;40423;53.176;6.002;2023-04-25T14:29:35;9.60;98.50
54518;DHT22;40423;53.176;6.002;2023-04-25T14:32:01;10.00;99.20
54518;DHT22;40423;53.176;6.002;2023-04-25T14:34:27;10.30;99.10
54518;DHT22;40423;53.176;6.002;2023-04-25T14:36:53;10.30;99.00
54518;DHT22;40423;53.176;6.002;2023-04-25T14:39:19;10.10;99.90
54518;DHT22;40423;53.176;6.002;2023-04-25T14:41:45;10.60;99.90
54518;DHT22;40423;53.176;6.002;2023-04-25T14:44:10;9.90;99.90
54518;DHT22;40423;53.176;6.002;2023-04-25T14:46:36;9.80;99.90
54518;DHT22;40423;53.176;6.002;2023-04-25T14:49:03;9.70;99.80
54518;DHT22;40423;53.176;6.002;2023-04-25T14:51:29;9.70;99.40
54518;DHT22;40423;53.176;6.002;2023-04-25T14:53:55;9.80;99.30
54518;DHT22;40423;53.176;6.002;2023-04-25T14:56:21;9.70;99.40
54518;DHT22;40423;53.176;6.002;2023-04-25T14:58:46;9.80;99.00
54518;DHT22;40423;53.176;6.002;2023-04-25T15:01:12;9.90;98.80
54518;DHT22;40423;53.176;6.002;2023-04-25T15:03:39;9.80;98.70
54518;DHT22;40423;53.176;6.002;2023-04-25T15:06:05;9.70;99.00
54518;DHT22;40423;53.176;6.002;2023-04-25T15:08:31;9.50;98.70
54518;DHT22;40423;53.176;6.002;2023-04-25T15:10:58;9.30;99.90
54518;DHT22;40423;53.176;6.002;2023-04-25T15:13:24;9.10;99.90
54518;DHT22;40423;53.176;6.002;2023-04-25T15:15:50;8.90;99.90
54518;DHT22;40423;53.176;6.002;2023-04-25T15:18:19;8.90;99.90
54518;DHT22;40423;53.176;6.002;2023-04-25T15:20:47;8.70;99.90
54518;DHT22;40423;53.176;6.002;2023-04-25T15:23:13;8.70;99.90
54518;DHT22;40423;53.176;6.002;2023-04-25T15:25:38;8.80;99.90
54518;DHT22;40423;53.176;6.002;2023-04-25T15:28:04;8.80;99.40
54518;DHT22;40423;53.176;6.002;2023-04-25T15:30:30;8.90;99.50
54518;DHT22;40423;53.176;6.002;2023-04-25T15:32:55;8.90;98.80
54518;DHT22;40423;53.176;6.002;2023-04-25T15:35:21;9.00;98.90
54518;DHT22;40423;53.176;6.002;2023-04-25T15:37:47;9.00;98.90
54518;DHT22;40423;53.176;6.002;2023-04-25T15:40:16;9.10;99.20
54518;DHT22;40423;53.176;6.002;2023-04-25T15:45:10;8.60;99.80
54518;DHT22;40423;53.176;6.002;2023-04-25T15:47:37;8.60;99.90
54518;DHT22;40423;53.176;6.002;2023-04-25T15:50:05;8.60;99.90
54518;DHT22;40423;53.176;6.002;2023-04-25T15:52:32;8.70;99.90
54518;DHT22;40423;53.176;6.002;2023-04-25T15:54:57;8.60;99.90
54518;DHT22;40423;53.176;6.002;2023-04-25T15:57:23;8.60;99.90